Forside
METAR-TAF:

METAR-TAF

Lufthavne :

Sligo, Irland

Breddekreds: 54-16-49N, længdekreds: 8-35-57W, højde: 3 m

Aktuelle vejr

Denne rapport blev lavet for 8 timer og 1 minutter siden, kl. 19:00 UTC
Vind 7 kt fra sydsydvest, varierende mellem syd og sydvest
Temperatur 15°C
Fugtighed 59%
Tryk 1030 hPa
Sigt 10 km eller mere
Spredte skyer i en højde af 4500 ft

METAR: EISG 241900Z 20007KT 170V230 9999 SCT045 15/07 Q1030

Tid: 04:01 (03:01 UTC)

Vejrudsigter

Denne rapport blev lavet for 1 time og 1 minutter siden, kl. 02:00 UTC
Foreløbig gælder fra 25 på 03 UTC til 25 på 12 UTC
Vind 8 kt fra syd
Sigt 10 km eller mere
Spredte skyer i en højde af 4000 ft
ændring
fra 25 på 07 UTC til 25 på 09 UTC
Vind 14 kt fra syd med vindstød på up til 25 kt

TAF: EISG 250200Z 2503/2512 17008KT 9999 SCT040 BECMG 2507/2509 18014G25KT

Vejrobservationer og prognoser fra mere end 4000 lufthavne (METAR og TAF).

De gule og røde prikker repræsenterer de meteorologiske stationer.

Flyt musen over at se navnet på stationen.

Så klik over at se vejr observationer og prognoser.

At skifte det kort: Klik på de grønne knapper med et sort kors for at zoome ind; på den grønne knap med en bindestreg for at zoome ud; eller på de grønne pile for tilstødende kort.


METAR-TAF: